createdAt,value
2023-02-03T00:00:52.437Z,67.50
2023-02-03T00:02:55.160Z,67.50
2023-02-03T00:04:57.697Z,67.60
2023-02-03T00:07:00.069Z,67.60
2023-02-03T00:09:03.154Z,67.60
2023-02-03T00:11:05.871Z,67.50
2023-02-03T00:13:08.897Z,67.50
2023-02-03T00:15:11.710Z,67.50
2023-02-03T00:17:15.596Z,67.40
2023-02-03T00:19:18.002Z,67.40
2023-02-03T00:21:20.627Z,67.20
2023-02-03T00:23:23.058Z,67.30
2023-02-03T00:25:25.116Z,67.40
2023-02-03T00:27:27.418Z,67.40
2023-02-03T00:29:29.652Z,67.40
2023-02-03T00:31:31.702Z,68.00
2023-02-03T00:33:34.628Z,67.60
2023-02-03T00:35:40.797Z,67.70
2023-02-03T00:37:42.819Z,67.60
2023-02-03T00:39:44.906Z,67.70
2023-02-03T00:41:47.797Z,67.90
2023-02-03T00:43:49.797Z,67.90
2023-02-03T00:45:51.997Z,68.00
2023-02-03T00:47:54.409Z,68.00
2023-02-03T00:49:58.545Z,68.00
2023-02-03T00:52:00.718Z,67.80
2023-02-03T00:54:02.851Z,67.90
2023-02-03T00:56:12.813Z,68.00
2023-02-03T00:58:15.304Z,67.80
2023-02-03T01:00:18.529Z,68.00
2023-02-03T01:02:21.437Z,67.90
2023-02-03T01:04:23.706Z,68.00
2023-02-03T01:06:26.194Z,68.00
2023-02-03T01:08:28.988Z,68.00
2023-02-03T01:10:31.570Z,68.00
2023-02-03T01:12:33.793Z,68.00
2023-02-03T01:14:36.127Z,67.90
2023-02-03T01:16:42.645Z,68.10
2023-02-03T01:18:46.604Z,68.10
2023-02-03T01:20:49.553Z,68.20
2023-02-03T01:22:51.780Z,68.40
2023-02-03T01:24:54.418Z,68.30
2023-02-03T01:26:56.760Z,68.30
2023-02-03T01:29:00.049Z,68.40
2023-02-03T01:31:09.939Z,68.30
2023-02-03T01:33:12.599Z,68.30
2023-02-03T01:35:15.280Z,68.30
2023-02-03T01:37:18.476Z,68.30
2023-02-03T01:39:20.727Z,68.20
2023-02-03T01:41:25.425Z,68.30
2023-02-03T01:43:56.993Z,68.20
2023-02-03T01:46:02.023Z,68.20
2023-02-03T01:48:04.876Z,68.10
2023-02-03T01:50:11.692Z,67.90
2023-02-03T01:52:14.461Z,68.10
2023-02-03T01:54:21.904Z,68.20
2023-02-03T01:56:24.604Z,68.10
2023-02-03T01:58:32.063Z,67.90
2023-02-03T02:00:34.010Z,68.00
2023-02-03T02:02:37.094Z,68.00
2023-02-03T02:05:12.308Z,68.10
2023-02-03T02:07:15.608Z,68.00
2023-02-03T02:09:18.039Z,68.10
2023-02-03T02:11:22.159Z,68.20
2023-02-03T02:13:25.691Z,68.30
2023-02-03T02:15:32.676Z,68.40
2023-02-03T02:17:47.459Z,68.40
2023-02-03T02:19:58.998Z,68.20
2023-02-03T02:22:05.255Z,68.20
2023-02-03T02:24:07.899Z,68.30
2023-02-03T02:26:13.556Z,69.30
2023-02-03T02:28:15.644Z,68.60
2023-02-03T02:30:27.587Z,68.50
2023-02-03T02:32:41.491Z,68.50
2023-02-03T02:35:04.285Z,68.30
2023-02-03T02:37:23.650Z,68.30
2023-02-03T02:39:45.820Z,68.20
2023-02-03T02:41:48.745Z,68.20
2023-02-03T02:44:09.723Z,68.40
2023-02-03T02:46:15.373Z,68.40
2023-02-03T02:48:22.728Z,68.40
2023-02-03T02:50:27.655Z,68.20
2023-02-03T02:52:32.029Z,68.30
2023-02-03T02:54:36.207Z,68.40
2023-02-03T02:56:40.823Z,68.40
2023-02-03T02:58:44.765Z,68.40
2023-02-03T03:00:47.738Z,68.10
2023-02-03T03:02:50.745Z,68.60
2023-02-03T03:04:53.515Z,68.20
2023-02-03T03:07:04.195Z,68.50
2023-02-03T03:09:09.979Z,68.50
2023-02-03T03:11:14.827Z,68.70
2023-02-03T03:13:20.978Z,69.50
2023-02-03T03:23:20.034Z,68.80
2023-02-03T03:30:23.976Z,68.50
2023-02-03T03:33:33.411Z,68.40
2023-02-03T03:39:41.923Z,68.50
2023-02-03T03:46:21.181Z,69.00
2023-02-03T04:07:36.061Z,68.80
2023-02-03T04:22:52.282Z,68.70
2023-02-03T04:24:33.567Z,68.90
2023-02-03T04:33:22.204Z,69.10
2023-02-03T04:36:08.611Z,69.50
2023-02-03T04:41:27.572Z,69.70
2023-02-03T04:44:31.005Z,69.70
2023-02-03T04:49:25.455Z,70.10
2023-02-03T04:51:57.708Z,70.10
2023-02-03T05:07:12.760Z,70.20
2023-02-03T05:21:04.155Z,70.40
2023-02-03T05:27:51.437Z,70.10
2023-02-03T05:33:38.431Z,70.10
2023-02-03T05:35:47.278Z,69.80
2023-02-03T05:42:10.757Z,70.00
2023-02-03T05:48:26.832Z,69.70
2023-02-03T06:05:00.403Z,69.80
2023-02-03T06:09:43.953Z,69.80
2023-02-03T06:27:38.100Z,69.80
2023-02-03T06:29:56.406Z,69.80
2023-02-03T06:32:41.764Z,69.80
2023-02-03T06:38:29.325Z,70.00
2023-02-03T06:44:00.469Z,70.10
2023-02-03T06:49:44.213Z,70.30
2023-02-03T06:51:58.764Z,70.50
2023-02-03T06:54:40.718Z,70.40
2023-02-03T06:56:54.752Z,70.40
2023-02-03T06:59:52.844Z,70.50
2023-02-03T07:02:46.276Z,70.60
2023-02-03T07:08:26.885Z,70.40
2023-02-03T07:10:51.425Z,69.90
2023-02-03T07:21:34.257Z,69.90
2023-02-03T07:27:18.923Z,69.80
2023-02-03T07:29:57.946Z,70.00
2023-02-03T07:35:59.341Z,70.20
2023-02-03T07:42:37.360Z,70.20
2023-02-03T07:44:02.191Z,70.10
2023-02-03T07:55:56.903Z,70.70
2023-02-03T08:08:20.875Z,70.40
2023-02-03T08:34:06.489Z,71.60
2023-02-03T08:37:44.042Z,70.90
2023-02-03T08:43:20.746Z,71.50
2023-02-03T08:48:46.210Z,71.00
2023-02-03T08:53:52.615Z,70.50
2023-02-03T09:24:43.685Z,70.50
2023-02-03T09:30:59.616Z,70.30
2023-02-03T09:33:20.778Z,70.50
2023-02-03T09:47:58.946Z,70.80
2023-02-03T09:50:56.024Z,70.70
2023-02-03T09:53:14.692Z,70.40
2023-02-03T09:55:37.332Z,70.40
2023-02-03T09:58:01.860Z,70.60
2023-02-03T10:00:33.416Z,70.60
2023-02-03T10:03:03.105Z,70.70
2023-02-03T10:05:54.184Z,70.50
2023-02-03T10:10:37.834Z,70.50
2023-02-03T10:13:07.147Z,70.40
2023-02-03T10:15:37.635Z,70.80
2023-02-03T10:18:06.767Z,70.90
2023-02-03T10:20:31.773Z,70.90
2023-02-03T10:22:54.230Z,71.10
2023-02-03T10:25:39.007Z,71.00
2023-02-03T10:27:43.115Z,70.70
2023-02-03T10:29:58.125Z,71.10
2023-02-03T10:32:03.305Z,70.60
2023-02-03T10:37:02.244Z,70.50
2023-02-03T10:39:32.377Z,70.60
2023-02-03T10:41:41.487Z,70.60
2023-02-03T10:44:15.451Z,70.40
2023-02-03T10:46:24.015Z,70.30
2023-02-03T10:48:53.901Z,70.40
2023-02-03T10:51:28.193Z,70.50
2023-02-03T10:57:02.566Z,70.50
2023-02-03T10:59:49.697Z,70.60
2023-02-03T11:01:58.818Z,70.40
2023-02-03T11:04:09.116Z,70.60
2023-02-03T11:06:28.055Z,70.60
2023-02-03T11:08:50.835Z,70.50
2023-02-03T11:11:09.407Z,70.20
2023-02-03T11:33:52.544Z,70.40
2023-02-03T11:46:23.887Z,70.50
2023-02-03T11:56:44.678Z,71.10
2023-02-03T12:06:13.941Z,70.40
2023-02-03T12:08:47.506Z,70.20
2023-02-03T12:11:23.971Z,70.40
2023-02-03T12:14:09.648Z,70.60
2023-02-03T12:16:38.503Z,70.50
2023-02-03T12:19:24.345Z,70.10
2023-02-03T12:21:41.839Z,70.10
2023-02-03T12:26:45.299Z,70.00
2023-02-03T12:29:35.931Z,70.00
2023-02-03T12:31:54.693Z,70.00
2023-02-03T12:34:30.964Z,70.00
2023-02-03T12:37:28.487Z,70.30
2023-02-03T12:40:21.317Z,70.40
2023-02-03T12:42:26.486Z,70.70
2023-02-03T12:47:22.453Z,70.60
2023-02-03T12:49:39.600Z,70.80
2023-02-03T12:51:51.212Z,71.00
2023-02-03T12:54:04.337Z,70.70
2023-02-03T12:56:46.805Z,70.60
2023-02-03T12:59:02.237Z,70.60
2023-02-03T13:01:40.867Z,70.70
2023-02-03T13:03:53.446Z,70.70
2023-02-03T13:09:53.739Z,70.60
2023-02-03T13:16:34.143Z,70.60
2023-02-03T13:19:09.564Z,71.20
2023-02-03T13:21:27.543Z,70.50
2023-02-03T13:24:47.183Z,70.60
2023-02-03T13:53:06.632Z,71.00
2023-02-03T13:55:22.520Z,70.80
2023-02-03T13:57:54.811Z,70.90
2023-02-03T13:59:58.898Z,71.00
2023-02-03T14:10:58.776Z,70.70
2023-02-03T14:20:23.985Z,70.70
2023-02-03T14:21:51.050Z,70.50
2023-02-03T14:40:58.530Z,70.50
2023-02-03T14:46:57.759Z,70.50
2023-02-03T14:50:04.564Z,70.40
2023-02-03T14:52:47.334Z,70.50
2023-02-03T15:11:29.746Z,70.50
2023-02-03T15:45:30.226Z,70.20
2023-02-03T16:18:08.868Z,70.30
2023-02-03T16:26:50.412Z,71.00
2023-02-03T16:30:13.725Z,70.30
2023-02-03T16:33:00.132Z,70.30
2023-02-03T16:41:42.917Z,70.10
2023-02-03T16:44:10.980Z,70.20
2023-02-03T16:46:31.346Z,70.30
2023-02-03T16:49:31.863Z,70.40
2023-02-03T16:51:47.937Z,70.40
2023-02-03T16:53:55.899Z,70.30
2023-02-03T16:56:01.526Z,70.30
2023-02-03T16:58:03.701Z,70.50
2023-02-03T17:00:28.937Z,70.30
2023-02-03T17:02:33.728Z,70.30
2023-02-03T17:04:37.157Z,70.30
2023-02-03T17:07:06.195Z,70.30
2023-02-03T17:09:12.774Z,70.30
2023-02-03T17:11:23.702Z,70.40
2023-02-03T17:13:27.291Z,70.50
2023-02-03T17:15:32.786Z,70.50
2023-02-03T17:17:46.303Z,70.60
2023-02-03T17:19:50.473Z,70.70
2023-02-03T17:21:56.293Z,70.30
2023-02-03T17:24:03.579Z,70.50
2023-02-03T17:26:12.711Z,70.40
2023-02-03T17:28:22.405Z,70.70
2023-02-03T17:30:31.309Z,70.60
2023-02-03T17:32:44.858Z,70.80
2023-02-03T17:34:48.178Z,71.00
2023-02-03T17:37:07.549Z,71.00
2023-02-03T18:01:19.524Z,70.80
2023-02-03T18:03:51.219Z,71.00
2023-02-03T18:13:41.644Z,71.20
2023-02-03T18:15:46.035Z,71.40
2023-02-03T18:18:04.431Z,71.20
2023-02-03T18:20:11.422Z,71.30
2023-02-03T18:22:19.694Z,71.20
2023-02-03T18:24:47.403Z,71.00
2023-02-03T18:27:08.861Z,70.90
2023-02-03T18:29:14.548Z,70.90
2023-02-03T18:31:41.918Z,71.00
2023-02-03T18:34:00.941Z,71.10
2023-02-03T18:36:12.416Z,71.30
2023-02-03T18:38:30.922Z,71.40
2023-02-03T18:40:37.570Z,71.30
2023-02-03T18:42:54.003Z,72.20
2023-02-03T18:45:08.550Z,71.30
2023-02-03T18:47:15.229Z,71.30
2023-02-03T18:49:19.467Z,71.10
2023-02-03T18:51:29.408Z,71.10
2023-02-03T18:53:36.125Z,71.20
2023-02-03T18:55:55.708Z,71.20
2023-02-03T18:57:59.985Z,71.30
2023-02-03T19:00:10.654Z,71.30
2023-02-03T19:02:25.341Z,71.40
2023-02-03T19:04:29.464Z,71.50
2023-02-03T19:06:59.469Z,71.70
2023-02-03T19:09:02.407Z,71.50
2023-02-03T19:11:27.555Z,71.50
2023-02-03T19:17:45.853Z,71.30
2023-02-03T19:19:53.614Z,71.30
2023-02-03T19:22:19.796Z,71.40
2023-02-03T19:27:02.748Z,71.80
2023-02-03T19:29:16.300Z,71.70
2023-02-03T19:32:14.255Z,71.70
2023-02-03T19:34:55.942Z,71.60
2023-02-03T19:37:01.962Z,71.50
2023-02-03T19:39:29.388Z,71.60
2023-02-03T19:41:47.515Z,71.30
2023-02-03T19:43:54.232Z,71.40
2023-02-03T19:46:01.189Z,71.50
2023-02-03T19:48:08.381Z,71.40
2023-02-03T19:50:16.748Z,71.30
2023-02-03T19:52:23.003Z,71.10
2023-02-03T19:54:41.190Z,71.00
2023-02-03T19:56:59.060Z,71.10
2023-02-03T19:59:15.537Z,71.20
2023-02-03T20:01:28.879Z,71.40
2023-02-03T20:06:28.548Z,71.20
2023-02-03T20:08:38.127Z,71.30
2023-02-03T20:13:28.258Z,71.30
2023-02-03T20:15:43.322Z,71.50
2023-02-03T20:18:04.577Z,71.10
2023-02-03T20:20:27.134Z,71.00
2023-02-03T20:22:43.735Z,71.00
2023-02-03T20:24:50.847Z,71.00
2023-02-03T20:27:01.012Z,71.20
2023-02-03T20:29:02.920Z,71.30
2023-02-03T20:31:18.678Z,71.40
2023-02-03T20:33:27.742Z,71.20
2023-02-03T20:35:45.737Z,71.20
2023-02-03T20:37:52.344Z,71.00
2023-02-03T20:39:56.608Z,71.10
2023-02-03T20:42:14.851Z,71.10
2023-02-03T20:47:24.609Z,71.30
2023-02-03T20:52:04.078Z,71.60
2023-02-03T20:54:29.638Z,71.60
2023-02-03T20:59:43.266Z,71.60
2023-02-03T21:01:46.525Z,71.70
2023-02-03T21:04:14.409Z,71.70
2023-02-03T21:06:26.806Z,71.90
2023-02-03T21:08:33.844Z,71.80
2023-02-03T21:10:47.344Z,71.80
2023-02-03T21:13:09.501Z,71.70
2023-02-03T21:16:00.019Z,71.80
2023-02-03T21:18:37.246Z,71.80
2023-02-03T21:37:34.156Z,71.80
2023-02-03T21:41:03.661Z,71.90
2023-02-03T21:46:09.884Z,72.00
2023-02-03T21:48:59.854Z,72.10
2023-02-03T21:51:59.938Z,72.20
2023-02-03T21:57:39.715Z,72.20
2023-02-03T22:00:39.552Z,72.10
2023-02-03T22:07:03.653Z,72.10
2023-02-03T22:09:15.320Z,72.00
2023-02-03T22:11:34.585Z,72.00
2023-02-03T22:14:08.400Z,71.80
2023-02-03T22:16:30.600Z,71.90
2023-02-03T22:18:38.291Z,71.70
2023-02-03T22:23:34.647Z,71.70
2023-02-03T22:25:54.715Z,71.70
2023-02-03T22:28:28.118Z,71.60
2023-02-03T22:30:37.526Z,71.70
2023-02-03T22:33:20.829Z,71.70
2023-02-03T22:35:57.726Z,71.60
2023-02-03T22:38:09.361Z,71.70
2023-02-03T22:41:00.824Z,71.80
2023-02-03T22:43:12.654Z,71.90
2023-02-03T22:45:24.010Z,72.10
2023-02-03T22:50:10.115Z,71.70
2023-02-03T22:52:19.174Z,71.40
2023-02-03T22:54:25.801Z,71.20
2023-02-03T22:57:07.073Z,71.40
2023-02-03T22:59:13.514Z,71.40
2023-02-03T23:01:19.322Z,71.50
2023-02-03T23:03:30.170Z,71.60
2023-02-03T23:05:39.332Z,71.70
2023-02-03T23:07:48.784Z,71.70
2023-02-03T23:09:58.485Z,71.80
2023-02-03T23:12:10.342Z,71.70
2023-02-03T23:16:56.490Z,71.70
2023-02-03T23:18:58.258Z,71.80
2023-02-03T23:21:04.238Z,71.80
2023-02-03T23:32:56.903Z,71.50
2023-02-03T23:35:18.714Z,71.60
2023-02-03T23:37:24.743Z,71.60
2023-02-03T23:39:29.430Z,71.70
2023-02-03T23:41:31.129Z,71.70
2023-02-03T23:43:32.837Z,71.70
2023-02-03T23:45:34.472Z,71.70
2023-02-03T23:47:36.172Z,71.80
2023-02-03T23:49:37.935Z,71.70
2023-02-03T23:51:39.619Z,71.70
2023-02-03T23:53:41.258Z,71.70
2023-02-03T23:55:42.874Z,71.60
2023-02-03T23:57:45.306Z,71.70
2023-02-03T23:59:46.925Z,71.60
